Time;durP1;ratioP1;P1;durP2;ratioP2;P2;SDS_P1;SDS_P2;PMS_P1;PMS_P2;Temp;Humidity;BMP_temperature;BMP_pressure;BME280_temperature;BME280_humidity;BME280_pressure;Samples;Min_cycle;Max_cycle;Signal;HPM_P1;HPM_P2
2023/11/23 00:05:10;;;;;;;;;;;;;;;;;;;;;
2023/11/23 00:07:51;;;;;;;;;;;;;;;;;;;;;
2023/11/23 00:11:10;;;;;;;;;;;;;;;;;;;;;
2023/11/23 00:20:31;;;;;;;;;0.00;0.00;;;;;10.60;100.00;102697.38;4926939;28;45616;-95
2023/11/23 00:23:33;;;;;;;;;0.00;0.00;;;;;10.51;100.00;102682.63;4937669;28;45230;-95
2023/11/23 00:26:51;;;;;;;;;;;;;;;;;;;;;
2023/11/23 00:33:24;;;;;;;;;;;;;;;;;;;;;
2023/11/23 00:43:25;;;;;;;;;;;;;;;;;;;;;
2023/11/23 00:46:33;;;;;;;;;;;;;;;;;;;;;
2023/11/23 00:59:47;;;;;;;;;;;;;;;;;;;;;
2023/11/23 01:13:27;;;;;;;;;;;;;;;;;;;;;
2023/11/23 01:20:06;;;;;;;;;;;;;;;;;;;;;
2023/11/23 01:23:07;;;;;;;;;;;;;;;;;;;;;
2023/11/23 01:39:53;;;;;;;;;;;;;;;;;;;;;
2023/11/23 01:46:38;;;;;;;;;;;;;;;;;;;;;
2023/11/23 01:50:03;;;;;;;;;;;;;;;;;;;;;
2023/11/23 02:26:56;;;;;;;;;;;;;;;;;;;;;
2023/11/23 02:50:47;;;;;;;;;;;;;;;;;;;;;
2023/11/23 03:10:56;;;;;;;;;;;;;;;;;;;;;
2023/11/23 03:14:21;;;;;;;;;;;;;;;;;;;;;
2023/11/23 03:31:01;;;;;;;;;;;;;;;;;;;;;
2023/11/23 04:01:25;;;;;;;;;;;;;;;;;;;;;
2023/11/23 04:08:32;;;;;;;;;;;;;;;;;;;;;
2023/11/23 04:15:13;;;;;;;;;;;;;;;;;;;;;
2023/11/23 04:21:24;;;;;;;;;;;;;;;;;;;;;
2023/11/23 04:31:25;;;;;;;;;;;;;;;;;;;;;
2023/11/23 04:52:02;;;;;;;;;;;;;;;;;;;;;
2023/11/23 04:58:29;;;;;;;;;;;;;;;;;;;;;
2023/11/23 05:12:04;;;;;;;;;;;;;;;;;;;;;
2023/11/23 05:49:01;;;;;;;;;;;;;;;;;;;;;
2023/11/23 06:05:50;;;;;;;;;;;;;;;;;;;;;
2023/11/23 06:09:05;;;;;;;;;;;;;;;;;;;;;
2023/11/23 06:12:24;;;;;;;;;;;;;;;;;;;;;
2023/11/23 06:31:03;;;;;;;;;0.00;0.00;;;;;11.92;100.00;102608.66;5431964;22;46459;-96
2023/11/23 06:33:29;;;;;;;;;0.00;0.00;;;;;11.89;100.00;102610.38;5272335;23;45495;-85
2023/11/23 06:35:57;;;;;;;;;0.00;0.00;;;;;11.92;100.00;102612.97;5036524;28;46941;-86
2023/11/23 06:38:24;;;;;;;;;0.00;0.00;;;;;11.92;100.00;102607.75;5038906;28;45304;-89
2023/11/23 06:41:46;;;;;;;;;0.00;0.00;;;;;11.93;100.00;102610.38;5015419;28;45656;-87
2023/11/23 06:44:11;;;;;;;;;0.00;0.00;;;;;11.95;100.00;102612.97;5019244;28;45335;-88
2023/11/23 06:47:29;;;;;;;;;0.00;0.00;;;;;11.90;100.00;102601.69;5009373;28;45405;-89
2023/11/23 06:50:45;;;;;;;;;0.00;0.00;;;;;11.92;100.00;102606.03;5038054;28;45598;-88
2023/11/23 06:53:57;;;;;;;;;0.00;0.00;;;;;11.90;100.00;102599.94;5012489;28;47001;-88
2023/11/23 06:57:22;;;;;;;;;;;;;;;;;;;;;
2023/11/23 06:59:48;;;;;;;;;0.00;0.00;;;;;11.90;100.00;102606.91;5012831;28;69367;-84
2023/11/23 07:02:13;;;;;;;;;0.00;0.00;;;;;11.92;100.00;102615.59;5015999;28;45742;-82
2023/11/23 07:04:40;;;;;;;;;0.00;0.00;;;;;11.91;100.00;102612.13;5013341;28;75715;-81
2023/11/23 07:07:06;;;;;;;;;0.00;0.00;;;;;11.93;100.00;102622.56;5009038;28;45322;-79
2023/11/23 07:09:32;;;;;;;;;0.00;0.00;;;;;11.73;100.00;102620.00;4994965;28;45529;-79
2023/11/23 07:11:58;;;;;;;;;0.00;0.00;;;;;11.70;100.00;102620.00;4977782;28;45571;-80
2023/11/23 07:14:23;;;;;;;;;0.00;0.00;;;;;11.69;100.00;102613.91;4994967;28;45519;-80
2023/11/23 07:16:51;;;;;;;;;0.00;0.00;;;;;11.70;100.00;102607.84;4993903;28;60722;-81
2023/11/23 07:19:17;;;;;;;;;0.00;0.00;;;;;11.72;100.00;102615.63;4978714;28;45374;-82
2023/11/23 07:21:43;;;;;;;;;0.00;0.00;;;;;11.71;100.00;102611.31;4978744;28;45444;-81
2023/11/23 07:24:09;;;;;;;;;0.00;0.00;;;;;11.71;100.00;102601.72;4993023;28;46243;-81
2023/11/23 07:26:34;;;;;;;;;0.00;0.00;;;;;11.74;100.00;102604.34;4994635;28;46580;-81
2023/11/23 07:28:59;;;;;;;;;0.00;0.00;;;;;11.75;100.00;102595.63;4994134;28;69405;-82
2023/11/23 07:31:25;;;;;;;;;0.00;0.00;;;;;11.77;100.00;102595.63;4993703;28;65382;-81
2023/11/23 07:33:50;;;;;;;;;0.00;0.00;;;;;11.82;100.00;102604.31;5017227;28;47061;-81
2023/11/23 07:36:16;;;;;;;;;0.00;0.00;;;;;11.82;100.00;102594.72;5024446;28;45478;-82
2023/11/23 07:38:44;;;;;;;;;0.00;0.00;;;;;11.86;100.00;102608.63;5016176;28;45444;-81
2023/11/23 07:41:11;;;;;;;;;0.00;0.00;;;;;11.91;100.00;102601.69;5036885;28;45382;-80
2023/11/23 07:43:37;;;;;;;;;0.00;0.00;;;;;11.94;100.00;102593.84;5035155;28;46422;-82
2023/11/23 07:46:02;;;;;;;;;0.00;0.00;;;;;11.98;100.00;102592.09;5034734;28;45528;-82
2023/11/23 07:48:28;;;;;;;;;0.00;0.00;;;;;12.03;100.00;102592.06;5035877;28;45516;-82
2023/11/23 07:50:54;;;;;;;;;0.00;0.00;;;;;12.05;100.00;102598.13;5003717;28;45354;-82
2023/11/23 07:53:19;;;;;;;;;0.00;0.00;;;;;12.08;100.00;102601.59;5033073;28;45329;-81
2023/11/23 07:55:45;;;;;;;;;0.00;0.00;;;;;12.11;100.00;102600.69;5035524;28;45550;-81
2023/11/23 07:58:11;;;;;;;;;0.00;0.00;;;;;12.15;100.00;102605.91;5016969;28;45427;-83
2023/11/23 08:00:40;;;;;;;;;0.00;0.00;;;;;12.18;100.00;102608.50;5032315;28;45440;-81
2023/11/23 08:03:05;;;;;;;;;0.00;0.00;;;;;12.18;100.00;102607.63;5004245;28;46504;-83
2023/11/23 08:05:31;;;;;;;;;0.00;0.00;;;;;12.20;100.00;102604.16;5023358;28;45420;-82
2023/11/23 08:07:57;;;;;;;;;0.00;0.00;;;;;12.20;100.00;102604.16;5005857;28;45580;-80
2023/11/23 08:10:22;;;;;;;;;0.00;0.00;;;;;12.42;100.00;102598.75;5030719;28;45336;-80
2023/11/23 08:12:47;;;;;;;;;0.00;0.00;;;;;12.56;100.00;102599.53;5029262;28;75284;-81
2023/11/23 08:15:13;;;;;;;;;0.00;0.00;;;;;12.62;100.00;102603.84;5002766;28;63907;-81
2023/11/23 08:17:38;;;;;;;;;0.00;0.00;;;;;12.68;100.00;102610.78;5022879;28;67512;-80
2023/11/23 08:20:08;;;;;;;;;0.00;0.00;;;;;12.71;100.00;102611.63;5034193;28;45484;-78
2023/11/23 08:22:35;;;;;;;;;0.00;0.00;;;;;12.75;100.00;102615.94;5022646;28;46493;-80
2023/11/23 08:25:00;;;;;;;;;0.00;0.00;;;;;12.75;100.00;102605.47;5014165;28;45487;-80
2023/11/23 08:27:26;;;;;;;;;0.00;0.00;;;;;12.76;100.00;102611.59;5052639;28;45428;-80
2023/11/23 08:29:52;;;;;;;;;0.00;0.00;;;;;12.79;100.00;102611.56;5036787;28;69463;-79
2023/11/23 08:32:18;;;;;;;;;0.00;0.00;;;;;12.85;100.00;102616.75;5033048;28;46388;-79
2023/11/23 08:34:44;;;;;;;;;0.00;0.00;;;;;12.86;100.00;102626.31;5033905;28;45513;-81
2023/11/23 08:37:09;;;;;;;;;0.00;0.00;;;;;12.81;100.00;102628.09;5015233;28;67381;-81
2023/11/23 08:39:35;;;;;;;;;0.00;0.00;;;;;12.86;100.00;102631.53;5030954;28;45557;-80
2023/11/23 08:42:00;;;;;;;;;0.00;0.00;;;;;12.77;100.00;102624.63;5032145;28;46046;-79
2023/11/23 08:44:26;;;;;;;;;0.00;0.00;;;;;12.82;100.00;102628.97;5034247;28;45401;-81
2023/11/23 08:46:51;;;;;;;;;0.00;0.00;;;;;12.81;100.00;102622.84;5032330;28;45505;-80
2023/11/23 08:49:16;;;;;;;;;0.00;0.00;;;;;12.77;100.00;102618.53;5009632;28;45534;-80
2023/11/23 08:51:42;;;;;;;;;0.00;0.00;;;;;12.84;100.00;102617.63;5025748;28;47188;-83
2023/11/23 08:54:11;;;;;;;;;0.00;0.00;;;;;12.89;100.00;102613.22;5016733;28;45496;-81
2023/11/23 08:56:37;;;;;;;;;0.00;0.00;;;;;12.83;100.00;102615.00;5034031;28;45453;-81
2023/11/23 08:59:03;;;;;;;;;0.00;0.00;;;;;12.88;100.00;102608.84;5034330;28;45529;-83
2023/11/23 09:01:28;;;;;;;;;0.00;0.00;;;;;12.91;100.00;102614.06;5014659;28;45861;-84
2023/11/23 09:03:54;;;;;;;;;0.00;0.00;;;;;12.96;100.00;102609.69;5037355;28;69079;-83
2023/11/23 09:06:21;;;;;;;;;0.00;0.00;;;;;13.00;100.00;102610.53;5033550;28;45458;-82
2023/11/23 09:08:47;;;;;;;;;0.00;0.00;;;;;12.98;100.00;102618.38;5031900;28;45628;-83
2023/11/23 09:11:12;;;;;;;;;0.00;0.00;;;;;13.01;100.00;102622.69;5033726;28;46259;-82
2023/11/23 09:13:38;;;;;;;;;0.00;0.00;;;;;13.04;100.00;102621.78;5033981;28;45421;-84
2023/11/23 09:16:03;;;;;;;;;0.00;0.00;;;;;13.01;100.00;102622.69;5015408;28;45764;-81
2023/11/23 09:18:29;;;;;;;;;4.00;4.00;;;;;13.03;100.00;102623.53;5018795;28;45584;-85
2023/11/23 09:20:54;;;;;;;;;0.00;0.00;;;;;13.04;100.00;102625.28;5012895;28;74554;-84
2023/11/23 09:23:20;;;;;;;;;0.00;0.00;;;;;13.02;100.00;102632.28;5017985;28;45683;-82
2023/11/23 09:25:46;;;;;;;;;0.00;0.00;;;;;13.03;100.00;102636.63;5015352;28;66411;-83
2023/11/23 09:28:11;;;;;;;;;0.00;0.00;;;;;13.04;100.00;102637.47;5034815;28;45453;-83
2023/11/23 09:30:37;;;;;;;;;0.00;0.00;;;;;13.04;100.00;102637.47;5020881;28;48093;-82
2023/11/23 09:33:03;;;;;;;;;0.00;0.00;;;;;13.04;100.00;102640.09;5001312;28;56664;-81
2023/11/23 09:35:29;;;;;;;;;0.00;0.00;;;;;13.06;100.00;102633.97;5005133;28;45591;-83
2023/11/23 09:37:54;;;;;;;;;0.00;0.00;;;;;13.10;100.00;102635.69;5032740;28;45357;-85
2023/11/23 09:40:20;;;;;;;;;0.00;0.00;;;;;13.16;100.00;102642.59;5018070;28;46280;-84
2023/11/23 09:42:48;;;;;;;;;0.00;0.00;;;;;13.22;100.00;102639.06;5025121;28;45414;-84
2023/11/23 09:45:22;;;;;;;;;0.00;0.00;;;;;13.27;100.00;102638.13;4999935;28;45503;-84
2023/11/23 09:47:52;;;;;;;;;0.00;0.00;;;;;13.34;100.00;102639.84;5020414;28;45410;-86
2023/11/23 09:50:19;;;;;;;;;0.00;0.00;;;;;13.37;100.00;102638.94;5018662;28;47091;-86
2023/11/23 09:52:50;;;;;;;;;0.00;0.00;;;;;13.39;100.00;102636.31;5022170;28;45691;-88
2023/11/23 09:55:39;;;;;;;;;0.00;0.00;;;;;13.45;100.00;102641.50;5021136;28;45461;-89
2023/11/23 09:58:04;;;;;;;;;0.00;0.00;;;;;13.49;100.00;102643.19;5019942;28;45743;-83
2023/11/23 10:00:33;;;;;;;;;0.00;0.00;;;;;13.55;100.00;102643.09;5035839;28;46115;-85
2023/11/23 10:02:59;;;;;;;;;0.75;0.75;;;;;13.59;100.00;102634.34;5019058;28;45361;-84
2023/11/23 10:05:26;;;;;;;;;0.00;0.00;;;;;13.66;100.00;102633.38;5018697;28;45655;-84
2023/11/23 10:07:53;;;;;;;;;0.00;0.00;;;;;13.68;100.00;102633.38;5018828;28;45660;-84
2023/11/23 10:10:19;;;;;;;;;0.00;0.00;;;;;13.73;100.00;102628.97;5023163;28;45431;-84
2023/11/23 10:12:45;;;;;;;;;0.00;0.00;;;;;13.78;100.00;102636.75;5036852;28;45358;-83
2023/11/23 10:15:11;;;;;;;;;0.00;0.00;;;;;13.83;100.00;102629.72;5018933;28;45366;-84
2023/11/23 10:17:37;;;;;;;;;0.00;0.00;;;;;13.85;100.00;102622.69;5035804;28;45541;-84
2023/11/23 10:20:15;;;;;;;;;0.00;0.00;;;;;13.94;100.00;102625.19;5035764;28;47234;-85
2023/11/23 10:22:44;;;;;;;;;3.50;3.50;;;;;14.01;100.00;102613.75;5033991;28;45748;-84
2023/11/23 10:25:10;;;;;;;;;0.00;0.00;;;;;14.10;100.00;102623.25;5034991;28;45454;-85
2023/11/23 10:27:36;;;;;;;;;0.00;0.00;;;;;14.13;100.00;102618.84;5041455;28;45562;-86
2023/11/23 10:30:04;;;;;;;;;0.00;0.00;;;;;14.15;100.00;102605.69;5039501;28;46547;-86
2023/11/23 10:32:30;;;;;;;;;0.00;0.00;;;;;14.19;100.00;102612.66;5019723;28;45395;-87
2023/11/23 10:35:06;;;;;;;;;0.00;0.00;;;;;14.25;100.00;102604.69;5020415;28;45500;-86
2023/11/23 10:37:33;;;;;;;;;0.00;0.00;;;;;14.33;100.00;102615.06;5036495;28;45732;-86
2023/11/23 10:40:00;;;;;;;;;1.00;1.00;;;;;14.37;100.00;102601.03;5013204;28;46180;-86
2023/11/23 10:42:27;;;;;;;;;0.00;0.00;;;;;14.46;100.00;102586.91;5034580;28;45448;-88
2023/11/23 10:44:53;;;;;;;;;0.00;0.00;;;;;14.53;100.00;102578.06;5018877;28;45644;-87
2023/11/23 10:55:24;;;;;;;;;;;;;;;;;;;;;
2023/11/23 10:58:38;;;;;;;;;;;;;;;;;;;;;
2023/11/23 11:01:27;;;;;;;;;0.00;0.00;;;;;14.61;100.00;102541.28;4933632;28;69968;-88
2023/11/23 11:08:02;;;;;;;;;;;;;;;;;;;;;
2023/11/23 11:10:28;;;;;;;;;0.00;0.00;;;;;14.64;100.00;102534.25;4915083;28;69159;-83
2023/11/23 11:13:07;;;;;;;;;0.00;0.00;;;;;15.01;100.00;102543.22;4915686;28;45747;-83
2023/11/23 11:16:14;;;;;;;;;21.00;12.00;;;;;14.94;100.00;102533.72;4918525;28;46972;-91
2023/11/23 11:22:33;;;;;;;;;0.00;0.00;;;;;15.01;100.00;102504.72;4884130;29;45491;-92
2023/11/23 11:28:39;;;;;;;;;0.00;0.00;;;;;14.81;100.00;102488.53;4874724;29;46875;-87
2023/11/23 11:35:20;;;;;;;;;0.00;0.00;;;;;15.11;100.00;102510.66;4852349;29;45509;-88
2023/11/23 11:38:26;;;;;;;;;0.00;0.00;;;;;15.03;100.00;102478.47;4855805;29;45622;-89
2023/11/23 11:41:23;;;;;;;;;0.00;0.00;;;;;15.02;100.00;102467.09;4845120;29;47354;-86
2023/11/23 11:44:54;;;;;;;;;1.00;1.00;;;;;15.01;100.00;102465.41;4861495;29;45507;-88
2023/11/23 11:51:34;;;;;;;;;;;;;;;;;;;;;
2023/11/23 12:03:56;;;;;;;;;;;;;;;;;;;;;
2023/11/23 12:20:16;;;;;;;;;1.00;1.00;;;;;14.75;100.00;102442.31;4856059;29;46924;-88
2023/11/23 12:23:07;;;;;;;;;0.00;0.00;;;;;14.80;100.00;102447.44;4843635;29;45640;-90
2023/11/23 12:25:53;;;;;;;;;;;;;;;;;;;;;
2023/11/23 12:28:29;;;;;;;;;0.00;0.00;;;;;14.97;100.00;102429.66;4880908;29;70034;-92
2023/11/23 12:31:46;;;;;;;;;;;;;;;;;;;;;
2023/11/23 12:34:15;;;;;;;;;0.00;0.00;;;;;15.04;100.00;102406.75;4858021;29;45458;-90
2023/11/23 12:36:40;;;;;;;;;0.00;0.00;;;;;15.09;100.00;102413.63;4847284;29;45542;-81
2023/11/23 12:39:07;;;;;;;;;0.00;0.00;;;;;15.19;100.00;102421.31;4855617;29;46254;-84
2023/11/23 12:41:32;;;;;;;;;0.00;0.00;;;;;15.23;100.00;102407.22;4857462;29;46444;-84
2023/11/23 12:43:57;;;;;;;;;0.00;0.00;;;;;15.28;100.00;102402.75;4843286;29;72371;-87
2023/11/23 12:46:30;;;;;;;;;0.00;0.00;;;;;15.25;100.00;102401.06;4884338;28;45525;-91
2023/11/23 12:48:56;;;;;;;;;0.00;0.00;;;;;15.34;100.00;102405.25;4896049;28;45567;-79
2023/11/23 12:51:47;;;;;;;;;0.00;0.00;;;;;15.35;100.00;102388.59;4904788;28;75401;-92
2023/11/23 12:55:06;;;;;;;;;;;;;;;;;;;;;
2023/11/23 13:00:47;;;;;;;;;0.00;0.00;;;;;15.28;100.00;102381.75;5003037;28;45829;-82
2023/11/23 13:03:12;;;;;;;;;0.00;0.00;;;;;15.31;100.00;102393.97;5035992;28;46173;-81
2023/11/23 13:05:37;;;;;;;;;0.00;0.00;;;;;15.27;100.00;102388.78;5020674;28;45433;-82
2023/11/23 13:08:03;;;;;;;;;0.00;0.00;;;;;15.27;100.00;102386.16;5019704;28;67670;-81
2023/11/23 13:10:29;;;;;;;;;0.00;0.00;;;;;15.29;100.00;102386.97;5038272;28;45340;-84
2023/11/23 13:12:56;;;;;;;;;0.00;0.00;;;;;15.31;100.00;102376.47;5020228;28;46106;-83
2023/11/23 13:15:22;;;;;;;;;0.00;0.00;;;;;15.33;100.00;102385.16;5020779;28;45385;-84
2023/11/23 13:17:49;;;;;;;;;0.00;0.00;;;;;15.32;100.00;102372.91;5037314;28;45372;-83
2023/11/23 13:20:14;;;;;;;;;0.00;0.00;;;;;15.34;100.00;102368.53;5027656;28;45961;-84
2023/11/23 13:22:41;;;;;;;;;0.00;0.00;;;;;15.33;100.00;102363.31;5018715;28;46464;-86
2023/11/23 13:25:11;;;;;;;;;0.00;0.00;;;;;15.31;100.00;102358.09;5017817;28;45543;-84
2023/11/23 13:27:37;;;;;;;;;0.00;0.00;;;;;15.35;100.00;102356.25;5033077;28;45359;-86
2023/11/23 13:30:03;;;;;;;;;0.00;0.00;;;;;15.34;100.00;102352.78;5020744;28;45330;-87
2023/11/23 13:32:30;;;;;;;;;0.00;0.00;;;;;15.32;100.00;102353.69;5009706;28;45633;-84
2023/11/23 13:34:56;;;;;;;;;0.00;0.00;;;;;15.23;100.00;102353.03;5032883;28;45535;-84
2023/11/23 13:37:22;;;;;;;;;0.00;0.00;;;;;15.20;100.00;102355.72;5014305;28;45547;-82
2023/11/23 13:39:47;;;;;;;;;0.00;0.00;;;;;15.20;100.00;102345.22;5033757;28;62670;-83
2023/11/23 13:42:14;;;;;;;;;0.00;0.00;;;;;15.16;100.00;102348.81;5037247;28;45357;-83
2023/11/23 13:44:39;;;;;;;;;0.00;0.00;;;;;15.14;100.00;102345.38;5035466;28;45476;-84
2023/11/23 13:47:06;;;;;;;;;0.00;0.00;;;;;15.10;100.00;102349.81;5012788;28;48882;-83
2023/11/23 13:49:32;;;;;;;;;0.75;0.75;;;;;15.10;100.00;102348.97;5038028;28;45559;-80
2023/11/23 13:51:58;;;;;;;;;1.00;1.00;;;;;15.06;100.00;102342.03;5035233;28;45437;-85
2023/11/23 13:54:25;;;;;;;;;0.00;0.00;;;;;15.09;100.00;102344.59;5017830;28;45855;-86
2023/11/23 13:56:53;;;;;;;;;0.00;0.00;;;;;15.06;100.00;102355.16;5010293;28;45591;-86
2023/11/23 13:59:19;;;;;;;;;0.00;0.00;;;;;15.09;100.00;102355.94;5023333;28;45958;-85
2023/11/23 14:01:44;;;;;;;;;0.00;0.00;;;;;15.10;100.00;102348.97;5019539;28;46369;-85
2023/11/23 14:04:12;;;;;;;;;0.00;0.00;;;;;15.12;100.00;102343.66;5020264;28;45753;-85
2023/11/23 14:06:47;;;;;;;;;0.00;0.00;;;;;15.16;100.00;102340.94;5037178;28;45259;-85
2023/11/23 14:09:29;;;;;;;;;;;;;;;;;;;;;
2023/11/23 14:11:55;;;;;;;;;0.00;0.00;;;;;15.10;100.00;102339.31;5037087;28;75382;-86
2023/11/23 14:14:23;;;;;;;;;0.00;0.00;;;;;15.11;100.00;102337.56;5021653;28;45393;-87
2023/11/23 14:16:50;;;;;;;;;0.00;0.00;;;;;15.07;100.00;102334.13;5024342;28;45406;-86
2023/11/23 14:19:19;;;;;;;;;0.00;0.00;;;;;15.12;100.00;102333.16;5033274;28;45464;-89
2023/11/23 14:21:49;;;;;;;;;0.75;0.75;;;;;15.10;100.00;102339.31;5019698;28;48318;-86
2023/11/23 14:24:15;;;;;;;;;0.00;0.00;;;;;15.13;100.00;102337.53;5020069;28;45719;-87
2023/11/23 14:26:43;;;;;;;;;0.00;0.00;;;;;15.10;100.00;102325.34;5038458;28;45498;-88
2023/11/23 14:29:11;;;;;;;;;0.00;0.00;;;;;15.12;100.00;102317.44;5013547;28;45488;-88
2023/11/23 14:31:37;;;;;;;;;0.00;0.00;;;;;15.06;100.00;102318.44;5014668;28;46271;-87
2023/11/23 14:34:03;;;;;;;;;0.00;0.00;;;;;15.04;100.00;102317.59;5036097;28;45854;-88
2023/11/23 14:36:31;;;;;;;;;0.00;0.00;;;;;15.01;100.00;102318.53;5020099;28;45416;-87
2023/11/23 14:39:09;;;;;;;;;;;;;;;;;;;;;
2023/11/23 14:42:07;;;;;;;;;;;;;;;;;;;;;
2023/11/23 14:44:40;;;;;;;;;0.00;0.00;;;;;15.01;100.00;102315.94;5036774;28;73040;-87
2023/11/23 14:47:19;;;;;;;;;;;;;;;;;;;;;
2023/11/23 14:50:07;;;;;;;;;;;;;;;;;;;;;
2023/11/23 14:52:44;;;;;;;;;0.00;0.00;;;;;15.03;100.00;102316.75;5033547;28;74543;-88
2023/11/23 14:55:35;;;;;;;;;;;;;;;;;;;;;
2023/11/23 14:58:30;;;;;;;;;;;;;;;;;;;;;
2023/11/23 15:01:01;;;;;;;;;0.00;0.00;;;;;15.02;100.00;102312.38;5016685;28;69254;-86
2023/11/23 15:06:30;;;;;;;;;;;;;;;;;;;;;
2023/11/23 15:12:19;;;;;;;;;;;;;;;;;;;;;
2023/11/23 15:14:54;;;;;;;;;0.00;0.00;;;;;14.98;100.00;102281.91;4953877;28;75322;-85
2023/11/23 15:17:29;;;;;;;;;0.00;0.00;;;;;14.99;100.00;102272.25;4963713;28;45548;-84
2023/11/23 15:20:06;;;;;;;;;0.00;0.00;;;;;14.98;100.00;102279.28;4956203;28;45376;-85
2023/11/23 15:22:39;;;;;;;;;0.00;0.00;;;;;15.04;100.00;102291.38;4934713;28;45606;-84
2023/11/23 15:25:33;;;;;;;;;0.00;0.00;;;;;15.07;100.00;102286.06;4962578;28;46323;-86
2023/11/23 15:30:47;;;;;;;;;0.00;0.00;;;;;14.98;100.00;102271.41;4927074;28;45603;-85
2023/11/23 15:33:18;;;;;;;;;0.00;0.00;;;;;14.98;100.00;102263.53;4915232;28;45935;-85
2023/11/23 15:35:45;;;;;;;;;0.00;0.00;;;;;14.97;100.00;102261.84;4934979;28;46391;-84
2023/11/23 15:38:39;;;;;;;;;0.00;0.00;;;;;14.95;100.00;102254.88;4932482;28;45412;-84
2023/11/23 15:41:07;;;;;;;;;0.00;0.00;;;;;14.94;100.00;102245.31;4913654;28;45567;-85
2023/11/23 15:43:39;;;;;;;;;0.00;0.00;;;;;15.00;100.00;102245.16;4948232;28;45846;-86
2023/11/23 15:46:16;;;;;;;;;0.00;0.00;;;;;15.02;100.00;102243.34;4951277;28;46533;-84
2023/11/23 15:48:44;;;;;;;;;0.00;0.00;;;;;15.07;100.00;102252.84;4954872;28;45662;-85
2023/11/23 15:51:23;;;;;;;;;0.00;0.00;;;;;15.02;100.00;102238.97;4966118;28;45446;-85
2023/11/23 15:53:49;;;;;;;;;0.00;0.00;;;;;15.01;100.00;102233.78;4956771;28;45453;-86
2023/11/23 15:56:22;;;;;;;;;0.00;0.00;;;;;15.05;100.00;102243.28;4958765;28;46341;-88
2023/11/23 15:58:55;;;;;;;;;0.00;0.00;;;;;14.99;100.00;102232.94;4955035;28;45536;-88
2023/11/23 16:01:27;;;;;;;;;0.00;0.00;;;;;15.04;100.00;102234.56;4962348;28;45470;-86
2023/11/23 16:03:53;;;;;;;;;0.00;0.00;;;;;14.98;100.00;102228.59;4967085;28;45602;-86
2023/11/23 16:06:18;;;;;;;;;0.00;0.00;;;;;14.97;100.00;102224.25;4956789;28;45360;-87
2023/11/23 16:08:47;;;;;;;;;0.00;0.00;;;;;14.98;100.00;102233.84;5027232;28;45414;-84
2023/11/23 16:11:14;;;;;;;;;0.00;0.00;;;;;14.98;100.00;102234.69;5035270;28;46398;-86
2023/11/23 16:13:42;;;;;;;;;0.00;0.00;;;;;14.94;100.00;102224.34;5017735;28;45484;-83
2023/11/23 16:16:08;;;;;;;;;0.00;0.00;;;;;14.97;100.00;102221.63;5017493;28;47242;-85
2023/11/23 16:18:35;;;;;;;;;0.00;0.00;;;;;14.95;100.00;102226.94;5035773;28;45306;-85
2023/11/23 16:21:00;;;;;;;;;0.00;0.00;;;;;14.93;100.00;102227.84;5014032;28;45433;-85
2023/11/23 16:23:26;;;;;;;;;0.00;0.00;;;;;14.95;100.00;102232.16;5030766;28;46182;-84
2023/11/23 16:25:53;;;;;;;;;0.00;0.00;;;;;14.95;100.00;102232.16;5023351;28;45645;-84
2023/11/23 16:28:19;;;;;;;;;0.00;0.00;;;;;14.97;100.00;102230.38;4998266;28;45382;-84
2023/11/23 16:30:46;;;;;;;;;0.00;0.00;;;;;14.95;100.00;102239.16;5015542;28;45334;-85
2023/11/23 16:33:11;;;;;;;;;0.00;0.00;;;;;14.90;100.00;102240.13;5009162;28;45505;-85
2023/11/23 16:35:39;;;;;;;;;0.00;0.00;;;;;14.88;100.00;102236.69;5029129;28;46339;-84
2023/11/23 16:38:05;;;;;;;;;0.00;0.00;;;;;14.85;100.00;102246.38;5015139;28;45657;-84
2023/11/23 16:40:30;;;;;;;;;0.00;0.00;;;;;14.80;100.00;102245.59;5035005;28;45465;-85
2023/11/23 16:42:55;;;;;;;;;0.00;0.00;;;;;14.77;100.00;102254.41;5016836;28;68304;-83
2023/11/23 16:45:21;;;;;;;;;0.00;0.00;;;;;14.80;100.00;102248.22;5034528;28;75746;-83
2023/11/23 16:47:47;;;;;;;;;0.00;0.00;;;;;14.71;100.00;102234.44;5013963;28;45630;-84
2023/11/23 16:50:12;;;;;;;;;0.00;0.00;;;;;14.66;100.00;102233.69;5015824;28;45409;-84
2023/11/23 16:52:38;;;;;;;;;0.00;0.00;;;;;14.66;100.00;102231.06;5034856;28;45543;-84
2023/11/23 16:55:04;;;;;;;;;1.00;1.00;;;;;14.66;100.00;102219.72;5030840;28;45817;-83
2023/11/23 16:57:30;;;;;;;;;0.00;0.00;;;;;14.66;100.00;102232.81;5029699;28;45449;-83
2023/11/23 16:59:56;;;;;;;;;0.00;0.00;;;;;14.68;100.00;102245.00;5034590;28;45444;-83
2023/11/23 17:02:22;;;;;;;;;0.00;0.00;;;;;14.62;100.00;102236.41;5034909;28;45453;-84
2023/11/23 17:04:48;;;;;;;;;0.25;0.25;;;;;14.64;100.00;102237.25;5032006;28;46403;-83
2023/11/23 17:07:14;;;;;;;;;0.00;0.00;;;;;14.60;100.00;102244.31;5024262;28;45351;-84
2023/11/23 17:09:40;;;;;;;;;0.00;0.00;;;;;14.54;100.00;102247.00;4994908;28;45547;-83
2023/11/23 17:12:06;;;;;;;;;0.00;0.00;;;;;14.57;100.00;102233.00;5010744;28;45421;-84
2023/11/23 17:14:32;;;;;;;;;0.25;0.00;;;;;14.60;100.00;102236.44;5034899;28;46570;-84
2023/11/23 17:16:57;;;;;;;;;0.00;0.00;;;;;14.61;100.00;102239.91;5011781;28;48580;-85
2023/11/23 17:19:24;;;;;;;;;0.00;0.00;;;;;14.60;100.00;102233.81;5030589;28;45587;-84
2023/11/23 17:21:50;;;;;;;;;0.00;0.00;;;;;14.60;100.00;102231.22;5027310;28;45800;-83
2023/11/23 17:24:16;;;;;;;;;0.00;0.00;;;;;14.61;100.00;102229.44;5024551;28;46462;-84
2023/11/23 17:26:42;;;;;;;;;0.00;0.00;;;;;14.58;100.00;102226.88;5033310;28;45802;-82
2023/11/23 17:29:09;;;;;;;;;0.00;0.00;;;;;14.57;100.00;102220.78;5017663;28;45643;-84
2023/11/23 17:31:34;;;;;;;;;0.00;0.00;;;;;14.58;100.00;102219.91;5035416;28;45443;-83
2023/11/23 17:34:00;;;;;;;;;0.00;0.00;;;;;14.57;100.00;102218.16;5016651;28;46365;-85
2023/11/23 17:36:27;;;;;;;;;0.50;0.50;;;;;14.55;100.00;102222.53;5017914;28;45376;-86
2023/11/23 17:38:52;;;;;;;;;0.00;0.00;;;;;14.53;100.00;102204.22;5035749;28;45652;-87
2023/11/23 17:41:18;;;;;;;;;0.00;0.00;;;;;14.53;100.00;102196.38;5017661;28;45330;-85
2023/11/23 17:43:46;;;;;;;;;0.00;0.00;;;;;14.56;100.00;102205.94;5034506;28;73477;-86
2023/11/23 17:46:16;;;;;;;;;0.00;0.00;;;;;14.55;100.00;102192.88;5035023;28;45638;-85
2023/11/23 17:48:42;;;;;;;;;0.00;0.00;;;;;14.57;100.00;102194.56;5019485;28;45345;-85
2023/11/23 17:51:09;;;;;;;;;0.00;0.00;;;;;14.55;100.00;102192.88;5041292;28;45463;-85
2023/11/23 17:53:36;;;;;;;;;0.00;0.00;;;;;14.57;100.00;102196.31;5026211;28;45389;-85
2023/11/23 17:56:06;;;;;;;;;0.00;0.00;;;;;14.59;100.00;102190.16;5045506;28;45401;-87
2023/11/23 17:58:32;;;;;;;;;0.00;0.00;;;;;14.61;100.00;102200.63;5046368;28;45576;-87
2023/11/23 18:00:59;;;;;;;;;0.00;0.00;;;;;14.61;100.00;102203.22;5045910;28;45433;-87
2023/11/23 18:03:25;;;;;;;;;0.00;0.00;;;;;14.59;100.00;102212.88;5022003;28;45416;-87
2023/11/23 18:05:50;;;;;;;;;0.00;0.00;;;;;14.58;100.00;102211.16;5021018;28;45483;-87
2023/11/23 18:08:16;;;;;;;;;0.00;0.00;;;;;14.58;100.00;102211.16;5021032;28;51489;-88
2023/11/23 18:10:47;;;;;;;;;24.00;24.00;;;;;14.60;100.00;102217.22;5021013;28;51886;-89
2023/11/23 18:13:12;;;;;;;;;0.00;0.00;;;;;14.59;100.00;102203.25;5019589;28;46517;-84
2023/11/23 18:15:38;;;;;;;;;0.00;0.00;;;;;14.53;100.00;102206.00;5023007;28;45469;-84
2023/11/23 18:18:03;;;;;;;;;0.50;0.50;;;;;14.55;100.00;102204.19;5029222;28;45669;-84
2023/11/23 18:20:28;;;;;;;;;0.00;0.00;;;;;14.55;100.00;102188.47;5000016;28;56862;-84
2023/11/23 18:22:57;;;;;;;;;0.00;0.00;;;;;14.57;100.00;102196.31;5004149;28;45399;-86
2023/11/23 18:25:23;;;;;;;;;0.00;0.00;;;;;14.55;100.00;102187.63;5000175;28;70341;-86
2023/11/23 18:27:50;;;;;;;;;0.00;0.00;;;;;14.52;100.00;102189.41;5018773;28;45310;-85
2023/11/23 18:30:18;;;;;;;;;0.00;0.00;;;;;14.47;100.00;102179.94;4984054;28;45398;-86
2023/11/23 18:32:44;;;;;;;;;0.00;0.00;;;;;14.46;100.00;102180.81;4999998;28;47293;-85
2023/11/23 18:35:15;;;;;;;;;0.00;0.00;;;;;14.44;100.00;102185.25;5004593;28;47011;-84
2023/11/23 18:37:41;;;;;;;;;0.00;0.00;;;;;14.38;100.00;102180.16;5025513;28;45817;-86
2023/11/23 18:40:15;;;;;;;;;0.00;0.00;;;;;14.32;100.00;102182.00;5018552;28;45549;-87
2023/11/23 18:42:41;;;;;;;;;0.00;0.00;;;;;14.32;100.00;102184.59;5013993;28;46415;-87
2023/11/23 18:45:10;;;;;;;;;2.25;2.25;;;;;14.32;100.00;102175.91;5025700;28;45498;-87
2023/11/23 18:47:35;;;;;;;;;0.00;0.00;;;;;14.33;100.00;102167.13;5035349;28;45400;-84